Time;durP1;ratioP1;P1;durP2;ratioP2;P2;SDS_P1;SDS_P2;PMS_P1;PMS_P2;Temp;Humidity;BMP_temperature;BMP_pressure;BME280_temperature;BME280_humidity;BME280_pressure;Samples;Min_cycle;Max_cycle;Signal;HPM_P1;HPM_P2
2022/10/28 00:09:46;;;;;;;14.40;6.33;;;;;;;;;;31248495;28;20061;-75
2022/10/28 00:24:48;;;;;;;12.97;6.17;;;;;;;;;;31247583;28;20076;-75
2022/10/28 00:39:49;;;;;;;12.63;6.17;;;;;;;;;;31243955;28;20049;-75
2022/10/28 00:54:52;;;;;;;16.90;6.47;;;;;;;;;;31246223;28;20045;-76
2022/10/28 01:09:54;;;;;;;16.13;6.43;;;;;;;;;;31241813;28;20057;-74
2022/10/28 01:25:14;;;;;;;13.37;6.40;;;;;;;;;;31243759;28;20139;-76
2022/10/28 01:40:26;;;;;;;14.27;5.43;;;;;;;;;;31239495;28;20064;-75
2022/10/28 01:55:32;;;;;;;15.87;6.00;;;;;;;;;;31241301;28;20053;-74
2022/10/28 02:10:35;;;;;;;9.93;4.90;;;;;;;;;;31237640;28;20452;-74
2022/10/28 02:25:42;;;;;;;14.23;4.60;;;;;;;;;;31237214;28;20111;-76
2022/10/28 02:40:46;;;;;;;15.63;4.83;;;;;;;;;;31254998;28;20060;-75
2022/10/28 02:55:50;;;;;;;11.00;5.57;;;;;;;;;;31256295;28;20056;-75
2022/10/28 03:10:51;;;;;;;14.60;4.83;;;;;;;;;;31253682;28;20054;-76
2022/10/28 03:25:53;;;;;;;14.63;4.37;;;;;;;;;;31251991;28;20112;-76
2022/10/28 03:40:55;;;;;;;11.83;4.43;;;;;;;;;;31246465;28;20060;-75
2022/10/28 03:55:58;;;;;;;8.73;4.27;;;;;;;;;;31252908;28;20065;-75
2022/10/28 04:11:00;;;;;;;8.07;4.23;;;;;;;;;;31246992;28;20064;-75
2022/10/28 04:26:01;;;;;;;13.03;4.93;;;;;;;;;;31245446;28;20092;-74
2022/10/28 04:41:03;;;;;;;10.77;5.00;;;;;;;;;;31244487;28;20056;-74
2022/10/28 04:56:05;;;;;;;11.53;5.30;;;;;;;;;;31246936;28;20127;-75
2022/10/28 05:11:07;;;;;;;14.80;4.67;;;;;;;;;;31237205;28;20053;-75
2022/10/28 05:26:08;;;;;;;10.40;4.83;;;;;;;;;;31240506;28;20096;-75
2022/10/28 05:41:10;;;;;;;9.13;4.63;;;;;;;;;;31240062;28;20057;-76
2022/10/28 05:56:12;;;;;;;10.23;5.03;;;;;;;;;;31243239;28;20068;-75
2022/10/28 06:11:14;;;;;;;8.50;4.40;;;;;;;;;;31249768;28;20513;-74
2022/10/28 06:26:15;;;;;;;7.87;4.20;;;;;;;;;;31258871;28;20566;-75
2022/10/28 06:41:17;;;;;;;11.73;5.17;;;;;;;;;;31257534;28;20057;-76
2022/10/28 06:56:19;;;;;;;12.33;5.00;;;;;;;;;;31260744;28;20085;-74
2022/10/28 07:11:20;;;;;;;13.57;7.07;;;;;;;;;;31253172;28;20057;-75
2022/10/28 07:26:22;;;;;;;16.00;7.37;;;;;;;;;;31250304;28;20470;-74
2022/10/28 07:41:24;;;;;;;8.83;5.83;;;;;;;;;;31246336;28;20089;-75
2022/10/28 07:56:26;;;;;;;8.02;4.72;;;;;;;;;;31246086;28;20080;-76
2022/10/28 08:11:28;;;;;;;8.85;5.70;;;;;;;;;;31247027;28;20062;-74
2022/10/28 08:26:29;;;;;;;8.73;5.30;;;;;;;;;;31239352;28;20053;-75
2022/10/28 08:41:39;;;;;;;13.50;5.80;;;;;;;;;;31239845;28;20056;-75
2022/10/28 08:56:47;;;;;;;18.45;10.80;;;;;;;;;;31246043;28;20421;-75
2022/10/28 09:11:49;;;;;;;6.45;4.43;;;;;;;;;;31239213;28;20053;-75
2022/10/28 09:26:50;;;;;;;8.30;4.55;;;;;;;;;;31240404;28;20561;-75
2022/10/28 09:41:53;;;;;;;6.93;4.82;;;;;;;;;;31243946;28;20057;-76
2022/10/28 09:56:55;;;;;;;7.13;4.32;;;;;;;;;;31266807;28;20052;-75
2022/10/28 10:12:01;;;;;;;7.40;5.20;;;;;;;;;;31260402;28;20057;-75
2022/10/28 10:27:09;;;;;;;6.75;4.22;;;;;;;;;;31258776;28;20057;-75
2022/10/28 10:42:15;;;;;;;8.65;4.97;;;;;;;;;;31256741;28;20444;-75
2022/10/28 10:57:19;;;;;;;7.15;4.03;;;;;;;;;;31255362;28;20053;-74
2022/10/28 11:12:26;;;;;;;7.67;4.73;;;;;;;;;;31249757;28;20050;-76
2022/10/28 11:27:27;;;;;;;8.50;4.40;;;;;;;;;;31251014;28;20064;-76
2022/10/28 11:42:39;;;;;;;7.68;4.47;;;;;;;;;;31250678;28;20053;-75
2022/10/28 11:57:47;;;;;;;8.27;4.65;;;;;;;;;;31253761;28;20057;-74
2022/10/28 12:12:56;;;;;;;8.65;5.13;;;;;;;;;;31244742;28;20057;-75
2022/10/28 12:28:04;;;;;;;8.50;4.78;;;;;;;;;;31244579;28;20053;-75
2022/10/28 12:43:29;;;;;;;7.25;4.93;;;;;;;;;;31242563;28;20061;-74
2022/10/28 12:58:31;;;;;;;;;;;;;;;;;;31245431;28;20382;-76
2022/10/28 13:13:32;;;;;;;10.07;3.88;;;;;;;;;;31240297;28;19921;-76
2022/10/28 13:28:40;;;;;;;9.02;4.28;;;;;;;;;;31240879;28;20103;-76
2022/10/28 13:43:48;;;;;;;8.85;3.97;;;;;;;;;;31236209;28;20057;-75
2022/10/28 13:58:51;;;;;;;8.07;4.10;;;;;;;;;;31242262;28;20046;-75
2022/10/28 14:13:59;;;;;;;7.80;4.10;;;;;;;;;;31237897;28;20054;-75
2022/10/28 14:29:21;;;;;;;5.05;2.78;;;;;;;;;;31245137;28;20049;-76
2022/10/28 14:44:41;;;;;;;4.97;2.92;;;;;;;;;;31256302;28;20115;-76
2022/10/28 14:59:44;;;;;;;4.60;3.22;;;;;;;;;;31261574;28;20049;-76
2022/10/28 15:14:45;;;;;;;8.45;3.58;;;;;;;;;;31253590;28;20056;-75
2022/10/28 15:29:48;;;;;;;11.30;4.05;;;;;;;;;;31252417;28;20050;-75
2022/10/28 15:44:53;;;;;;;8.07;4.22;;;;;;;;;;31248131;28;20370;-75
2022/10/28 16:00:13;;;;;;;8.52;4.35;;;;;;;;;;31254440;28;20054;-77
2022/10/28 16:15:15;;;;;;;16.63;10.03;;;;;;;;;;31240596;28;20103;-76
2022/10/28 16:30:17;;;;;;;8.37;5.03;;;;;;;;;;31245033;28;20049;-76
2022/10/28 16:45:19;;;;;;;9.17;5.90;;;;;;;;;;31242622;28;20425;-75
2022/10/28 17:00:21;;;;;;;7.97;4.50;;;;;;;;;;31246511;28;20053;-76
2022/10/28 17:15:22;;;;;;;5.60;3.20;;;;;;;;;;31237814;28;20504;-77
2022/10/28 17:30:26;;;;;;;6.80;3.70;;;;;;;;;;31238391;28;20498;-75
2022/10/28 17:45:27;;;;;;;5.87;3.87;;;;;;;;;;31238270;28;20129;-77
2022/10/28 18:00:29;;;;;;;13.83;5.80;;;;;;;;;;31247596;28;20049;-76
2022/10/28 18:15:31;;;;;;;8.67;4.77;;;;;;;;;;31261179;28;20052;-77
2022/10/28 18:30:32;;;;;;;6.60;3.67;;;;;;;;;;31261239;28;20050;-75
2022/10/28 18:45:34;;;;;;;7.80;4.23;;;;;;;;;;31257429;28;20489;-77
2022/10/28 19:00:38;;;;;;;13.00;7.80;;;;;;;;;;31258323;28;20049;-77
2022/10/28 19:15:45;;;;;;;10.27;6.00;;;;;;;;;;31253262;28;20555;-76
2022/10/28 19:30:47;;;;;;;7.80;5.03;;;;;;;;;;31251072;28;20053;-76
2022/10/28 19:45:48;;;;;;;11.77;7.40;;;;;;;;;;31250887;28;20084;-76
2022/10/28 20:00:55;;;;;;;10.10;5.60;;;;;;;;;;31254374;28;20053;-76
2022/10/28 20:15:59;;;;;;;35.53;17.17;;;;;;;;;;31246725;28;20053;-75
2022/10/28 20:31:02;;;;;;;12.30;6.10;;;;;;;;;;31244167;28;20049;-77
2022/10/28 20:46:05;;;;;;;11.30;7.27;;;;;;;;;;31236890;28;20569;-76
2022/10/28 21:01:16;;;;;;;15.30;8.93;;;;;;;;;;31247500;28;20064;-76
2022/10/28 21:16:18;;;;;;;11.07;6.73;;;;;;;;;;31241504;28;20049;-75
2022/10/28 21:31:20;;;;;;;32.57;17.37;;;;;;;;;;31239472;28;20111;-76
2022/10/28 21:46:22;;;;;;;26.10;17.53;;;;;;;;;;31261528;28;20489;-76
2022/10/28 22:01:24;;;;;;;17.77;10.27;;;;;;;;;;31269151;28;20053;-76
2022/10/28 22:16:27;;;;;;;18.73;11.50;;;;;;;;;;31260743;28;20049;-76
2022/10/28 22:31:32;;;;;;;14.53;9.60;;;;;;;;;;31258128;28;20054;-75
2022/10/28 22:46:35;;;;;;;9.53;5.13;;;;;;;;;;31256198;28;20060;-76
2022/10/28 23:01:37;;;;;;;12.53;6.07;;;;;;;;;;31261854;28;20405;-75
2022/10/28 23:16:39;;;;;;;9.00;5.63;;;;;;;;;;31251691;28;20045;-76
2022/10/28 23:31:41;;;;;;;10.53;6.17;;;;;;;;;;31252915;28;20061;-77
2022/10/28 23:46:43;;;;;;;21.10;10.93;;;;;;;;;;31251225;28;20053;-75
